Impacts METAR Board
IDs:

KHYI - San Marcos Muni, TX, US

Updated at: 0500 UTC 19 Aug 2019
Potential Impact None Slight Moderate High
Time 18/17Z 18/18Z 18/19Z 18/20Z 18/21Z 18/22Z 18/23Z 19/00Z 19/01Z 19/02Z 19/03Z 19/04Z 19/05Z
Temp94 96 98 100 102 101 100 98 93 90 87 84 82
Dewpt72 71 71 70 70 68 68 71 72 69 73 74 75
Altim29.92 29.91 29.89 29.87 29.85 29.84 29.83 29.82 29.84 29.87 29.90 29.94 29.95
VIS10 10 10 10 10 10 10 10 10 10 10 10 10
CIG-- -- -- -- -- -- -- -- -- -- -- -- --
CoverSCTFEWCLRCLRCLRFEWFEWSCTCLRCLRCLRCLRCLR
FltCatVFRVFRVFRVFRVFRVFRVFRVFRVFRVFRVFRVFRVFR
WX--------------------------
WDir220190210180190210150140150150160160170
WSpd15 13 11 6 13 9 12 14 16 13 14 9 11
WGst21 20 16 16 -- 19 -- 17 20 -- -- -- --
Raw hourly METARs
KHYI 181656Z 22015G21KT 10SM SCT045 34/22 A2992 RMK AO2 SLP121 T03440222
KHYI 181756Z 19013G20KT 10SM FEW048 36/22 A2991 RMK AO2 SLP117 T03560217 10356 20256 58006
KHYI 181856Z 21011G16KT 10SM CLR 37/22 A2989 RMK AO2 SLP110 T03670217
KHYI 181956Z 18006G16KT 10SM CLR 38/21 A2987 RMK AO2 SLP105 T03780211
KHYI 182056Z 19013KT 10SM CLR 39/21 A2985 RMK AO2 SLP097 T03890211 58020
KHYI 182156Z 21009G19KT 10SM FEW075 38/20 A2984 RMK AO2 SLP092 T03830200
KHYI 182256Z 15012KT 10SM FEW080 38/20 A2983 RMK AO2 SLP091 T03780200
KHYI 182356Z AUTO 14014G17KT 10SM SCT080 37/22 A2982 RMK AO2 SLP087 T03670217 10389 20356 56009
KHYI 190056Z AUTO 15016G20KT 10SM CLR 34/22 A2984 RMK AO2 SLP095 T03390222
KHYI 190156Z AUTO 15013KT 10SM CLR 32/21 A2987 RMK AO2 SLP104 T03220206
KHYI 190256Z AUTO 16014KT 10SM CLR 31/23 A2990 RMK AO2 SLP113 T03060228 53025
KHYI 190356Z AUTO 16009KT 10SM CLR 29/23 A2994 RMK AO2 SLP125 T02890233
KHYI 190456Z AUTO 17011KT 10SM CLR 28/24 A2995 RMK AO2 SLP130 T02780239



Page loaded:  05:43 UTC  |   10:43 PM Pacific  |   11:43 PM Mountain  |   12:43 AM Central  |   01:43 AM Eastern

 

ADVISORIES

FORECASTS

FORECASTS

OBSERVATIONS

USER TOOLS

ABOUT US